Riegelwood, North Carolina
Current Conditions -  °F | °C
As of 4:53 AM on Thursday 29 Jan 2015 (Local Time) from KILM Reporting Station
Clear Clear  
Wind Chill: 16°   Ceiling: Unl
Heat Index: 22°   Visibility: 10mi
Dew Point: 20°   Wind: 5mph
Humidity: 92%   Direction: 40°NE
Pressure: 30.33"   Gusts: NA
Location:  34.34°N, 78.23°W
Report Text: KILM 290953Z AUTO 04004KT 10SM CLR M06/M07 A3033 RMK AO2 SLP270 I1000 T10561067
Loading
Personal Weather Stations






























Interactive Weather Map New forecast layout! Learn more

10-Day Weather Forecast

Advertisements
Track Severe Weather on mobile